sensor_id;sensor_type;location;lat;lon;timestamp;temperature;humidity
31455;DHT22;18084;53.028;8.834;2023-10-31T00:01:06;12.90;99.90
31455;DHT22;18084;53.028;8.834;2023-10-31T00:03:32;11.80;99.90
31455;DHT22;18084;53.028;8.834;2023-10-31T00:05:57;12.40;99.90
31455;DHT22;18084;53.028;8.834;2023-10-31T00:08:23;12.50;99.90
31455;DHT22;18084;53.028;8.834;2023-10-31T00:10:49;11.80;99.90
31455;DHT22;18084;53.028;8.834;2023-10-31T00:13:15;11.90;99.90
31455;DHT22;18084;53.028;8.834;2023-10-31T00:15:43;13.20;99.90
31455;DHT22;18084;53.028;8.834;2023-10-31T00:18:09;12.20;99.90
31455;DHT22;18084;53.028;8.834;2023-10-31T00:20:34;11.80;99.90
31455;DHT22;18084;53.028;8.834;2023-10-31T00:23:00;11.80;99.90
31455;DHT22;18084;53.028;8.834;2023-10-31T00:25:29;11.90;99.90
31455;DHT22;18084;53.028;8.834;2023-10-31T00:27:54;11.90;99.90
31455;DHT22;18084;53.028;8.834;2023-10-31T00:30:20;12.70;99.90
31455;DHT22;18084;53.028;8.834;2023-10-31T00:32:46;11.90;99.90
31455;DHT22;18084;53.028;8.834;2023-10-31T00:35:12;11.80;99.90
31455;DHT22;18084;53.028;8.834;2023-10-31T00:37:38;12.30;99.90
31455;DHT22;18084;53.028;8.834;2023-10-31T00:40:08;11.80;99.90
31455;DHT22;18084;53.028;8.834;2023-10-31T00:42:37;11.90;99.90
31455;DHT22;18084;53.028;8.834;2023-10-31T00:45:03;11.90;99.90
31455;DHT22;18084;53.028;8.834;2023-10-31T00:47:28;11.90;99.90
31455;DHT22;18084;53.028;8.834;2023-10-31T00:49:54;11.90;99.90
31455;DHT22;18084;53.028;8.834;2023-10-31T00:52:19;11.90;99.90
31455;DHT22;18084;53.028;8.834;2023-10-31T00:54:45;11.90;99.90
31455;DHT22;18084;53.028;8.834;2023-10-31T00:57:10;11.90;99.90
31455;DHT22;18084;53.028;8.834;2023-10-31T00:59:36;11.90;99.90
31455;DHT22;18084;53.028;8.834;2023-10-31T01:02:06;11.90;99.90
31455;DHT22;18084;53.028;8.834;2023-10-31T01:04:31;11.90;99.90
31455;DHT22;18084;53.028;8.834;2023-10-31T01:06:57;12.70;99.90
31455;DHT22;18084;53.028;8.834;2023-10-31T01:09:23;11.90;99.90
31455;DHT22;18084;53.028;8.834;2023-10-31T01:11:48;13.10;99.90
31455;DHT22;18084;53.028;8.834;2023-10-31T01:14:14;11.90;99.90
31455;DHT22;18084;53.028;8.834;2023-10-31T01:16:40;11.90;99.90
31455;DHT22;18084;53.028;8.834;2023-10-31T01:19:05;11.80;99.90
31455;DHT22;18084;53.028;8.834;2023-10-31T01:21:31;12.30;99.90
31455;DHT22;18084;53.028;8.834;2023-10-31T01:23:58;12.60;99.90
31455;DHT22;18084;53.028;8.834;2023-10-31T01:26:23;12.70;99.90
31455;DHT22;18084;53.028;8.834;2023-10-31T01:28:49;11.90;99.90
31455;DHT22;18084;53.028;8.834;2023-10-31T01:31:14;12.30;99.90
31455;DHT22;18084;53.028;8.834;2023-10-31T01:33:40;12.00;99.90
31455;DHT22;18084;53.028;8.834;2023-10-31T01:36:06;11.90;99.90
31455;DHT22;18084;53.028;8.834;2023-10-31T01:38:31;12.00;99.90
31455;DHT22;18084;53.028;8.834;2023-10-31T01:40:57;12.10;99.90
31455;DHT22;18084;53.028;8.834;2023-10-31T01:43:32;12.00;99.90
31455;DHT22;18084;53.028;8.834;2023-10-31T01:46:01;12.00;99.90
31455;DHT22;18084;53.028;8.834;2023-10-31T01:48:29;12.00;99.90
31455;DHT22;18084;53.028;8.834;2023-10-31T01:50:55;12.00;99.90
31455;DHT22;18084;53.028;8.834;2023-10-31T01:53:23;12.00;99.90
31455;DHT22;18084;53.028;8.834;2023-10-31T01:55:50;12.00;99.90
31455;DHT22;18084;53.028;8.834;2023-10-31T01:58:15;12.00;99.90
31455;DHT22;18084;53.028;8.834;2023-10-31T02:00:41;12.00;99.90
31455;DHT22;18084;53.028;8.834;2023-10-31T02:03:08;12.00;99.90
31455;DHT22;18084;53.028;8.834;2023-10-31T02:05:34;12.00;99.90
31455;DHT22;18084;53.028;8.834;2023-10-31T02:08:01;12.00;99.90
31455;DHT22;18084;53.028;8.834;2023-10-31T02:10:26;12.00;99.90
31455;DHT22;18084;53.028;8.834;2023-10-31T02:12:52;12.00;99.90
31455;DHT22;18084;53.028;8.834;2023-10-31T02:15:17;12.00;99.90
31455;DHT22;18084;53.028;8.834;2023-10-31T02:17:43;12.00;99.90
31455;DHT22;18084;53.028;8.834;2023-10-31T02:20:09;12.00;99.90
31455;DHT22;18084;53.028;8.834;2023-10-31T02:22:34;12.00;99.90
31455;DHT22;18084;53.028;8.834;2023-10-31T02:25:00;12.00;99.90
31455;DHT22;18084;53.028;8.834;2023-10-31T02:27:25;12.00;99.90
31455;DHT22;18084;53.028;8.834;2023-10-31T02:29:51;12.00;99.90
31455;DHT22;18084;53.028;8.834;2023-10-31T02:32:16;12.60;99.90
31455;DHT22;18084;53.028;8.834;2023-10-31T02:34:44;12.90;99.90
31455;DHT22;18084;53.028;8.834;2023-10-31T02:37:09;12.00;99.90
31455;DHT22;18084;53.028;8.834;2023-10-31T02:39:35;12.00;99.90
31455;DHT22;18084;53.028;8.834;2023-10-31T02:42:01;12.00;99.90
31455;DHT22;18084;53.028;8.834;2023-10-31T02:44:27;12.00;99.90
31455;DHT22;18084;53.028;8.834;2023-10-31T02:46:52;12.00;99.90
31455;DHT22;18084;53.028;8.834;2023-10-31T02:49:18;12.10;99.90
31455;DHT22;18084;53.028;8.834;2023-10-31T02:51:46;13.40;99.90
31455;DHT22;18084;53.028;8.834;2023-10-31T02:54:12;13.20;99.90
31455;DHT22;18084;53.028;8.834;2023-10-31T02:56:37;12.10;99.90
31455;DHT22;18084;53.028;8.834;2023-10-31T02:59:03;13.20;99.90
31455;DHT22;18084;53.028;8.834;2023-10-31T03:01:29;12.00;99.90
31455;DHT22;18084;53.028;8.834;2023-10-31T03:03:54;12.30;99.90
31455;DHT22;18084;53.028;8.834;2023-10-31T03:06:20;12.10;99.90
31455;DHT22;18084;53.028;8.834;2023-10-31T03:08:46;12.10;99.90
31455;DHT22;18084;53.028;8.834;2023-10-31T03:11:21;12.20;99.90
31455;DHT22;18084;53.028;8.834;2023-10-31T03:13:47;13.60;99.90
31455;DHT22;18084;53.028;8.834;2023-10-31T03:16:12;12.10;99.90
31455;DHT22;18084;53.028;8.834;2023-10-31T03:18:39;12.10;99.90
31455;DHT22;18084;53.028;8.834;2023-10-31T03:21:05;12.10;99.90
31455;DHT22;18084;53.028;8.834;2023-10-31T03:23:30;12.40;99.90
31455;DHT22;18084;53.028;8.834;2023-10-31T03:25:56;12.10;99.90
31455;DHT22;18084;53.028;8.834;2023-10-31T03:28:21;12.20;99.90
31455;DHT22;18084;53.028;8.834;2023-10-31T03:30:50;12.90;99.90
31455;DHT22;18084;53.028;8.834;2023-10-31T03:33:16;12.10;99.90
31455;DHT22;18084;53.028;8.834;2023-10-31T03:35:43;12.10;99.90
31455;DHT22;18084;53.028;8.834;2023-10-31T03:38:08;12.10;99.90
31455;DHT22;18084;53.028;8.834;2023-10-31T03:40:34;12.10;99.90
31455;DHT22;18084;53.028;8.834;2023-10-31T03:43:00;12.10;99.90
31455;DHT22;18084;53.028;8.834;2023-10-31T03:45:25;12.10;99.90
31455;DHT22;18084;53.028;8.834;2023-10-31T03:47:51;12.10;99.90
31455;DHT22;18084;53.028;8.834;2023-10-31T03:50:16;12.10;99.90
31455;DHT22;18084;53.028;8.834;2023-10-31T03:52:41;12.10;99.90
31455;DHT22;18084;53.028;8.834;2023-10-31T03:55:07;12.10;99.90
31455;DHT22;18084;53.028;8.834;2023-10-31T03:57:33;12.10;99.90
31455;DHT22;18084;53.028;8.834;2023-10-31T03:59:58;13.40;99.90
31455;DHT22;18084;53.028;8.834;2023-10-31T04:02:24;12.20;99.90
31455;DHT22;18084;53.028;8.834;2023-10-31T04:04:49;12.10;99.90
31455;DHT22;18084;53.028;8.834;2023-10-31T04:07:15;12.20;99.90
31455;DHT22;18084;53.028;8.834;2023-10-31T04:09:43;12.20;99.90
31455;DHT22;18084;53.028;8.834;2023-10-31T04:12:09;12.20;99.90
31455;DHT22;18084;53.028;8.834;2023-10-31T04:14:34;12.20;99.90
31455;DHT22;18084;53.028;8.834;2023-10-31T04:17:00;12.60;99.90
31455;DHT22;18084;53.028;8.834;2023-10-31T04:19:25;12.30;99.90
31455;DHT22;18084;53.028;8.834;2023-10-31T04:21:53;12.20;99.90
31455;DHT22;18084;53.028;8.834;2023-10-31T04:24:19;12.20;99.90
31455;DHT22;18084;53.028;8.834;2023-10-31T04:26:44;12.20;99.90
31455;DHT22;18084;53.028;8.834;2023-10-31T04:29:10;13.70;99.90
31455;DHT22;18084;53.028;8.834;2023-10-31T04:31:35;13.00;99.90
31455;DHT22;18084;53.028;8.834;2023-10-31T04:34:04;12.50;99.90
31455;DHT22;18084;53.028;8.834;2023-10-31T04:36:29;12.20;99.90
31455;DHT22;18084;53.028;8.834;2023-10-31T04:38:55;13.20;99.90
31455;DHT22;18084;53.028;8.834;2023-10-31T04:41:20;12.20;99.90
31455;DHT22;18084;53.028;8.834;2023-10-31T04:43:46;12.90;99.90
31455;DHT22;18084;53.028;8.834;2023-10-31T04:46:12;12.70;99.90
31455;DHT22;18084;53.028;8.834;2023-10-31T04:48:37;12.20;99.90
31455;DHT22;18084;53.028;8.834;2023-10-31T04:51:03;13.30;99.90
31455;DHT22;18084;53.028;8.834;2023-10-31T04:53:28;12.20;99.90
31455;DHT22;18084;53.028;8.834;2023-10-31T04:55:54;12.20;99.90
31455;DHT22;18084;53.028;8.834;2023-10-31T04:58:19;12.30;99.90
31455;DHT22;18084;53.028;8.834;2023-10-31T05:00:46;13.10;99.90
31455;DHT22;18084;53.028;8.834;2023-10-31T05:03:11;12.30;99.90
31455;DHT22;18084;53.028;8.834;2023-10-31T05:05:37;12.30;99.90
31455;DHT22;18084;53.028;8.834;2023-10-31T05:08:03;12.20;99.90
31455;DHT22;18084;53.028;8.834;2023-10-31T05:10:29;12.10;99.90
31455;DHT22;18084;53.028;8.834;2023-10-31T05:12:54;12.10;99.90
31455;DHT22;18084;53.028;8.834;2023-10-31T05:15:20;12.10;99.90
31455;DHT22;18084;53.028;8.834;2023-10-31T05:17:45;12.10;99.90
31455;DHT22;18084;53.028;8.834;2023-10-31T05:20:11;12.00;99.90
31455;DHT22;18084;53.028;8.834;2023-10-31T05:22:37;12.00;99.90
31455;DHT22;18084;53.028;8.834;2023-10-31T05:25:02;12.00;99.90
31455;DHT22;18084;53.028;8.834;2023-10-31T05:27:28;11.90;99.90
31455;DHT22;18084;53.028;8.834;2023-10-31T05:29:54;11.80;99.90
31455;DHT22;18084;53.028;8.834;2023-10-31T05:32:19;11.80;99.90
31455;DHT22;18084;53.028;8.834;2023-10-31T05:34:45;11.80;99.90
31455;DHT22;18084;53.028;8.834;2023-10-31T05:37:11;11.70;99.90
31455;DHT22;18084;53.028;8.834;2023-10-31T05:39:36;11.60;99.90
31455;DHT22;18084;53.028;8.834;2023-10-31T05:42:02;11.60;99.90
31455;DHT22;18084;53.028;8.834;2023-10-31T05:44:28;11.60;99.90
31455;DHT22;18084;53.028;8.834;2023-10-31T05:46:54;11.40;99.90
31455;DHT22;18084;53.028;8.834;2023-10-31T05:49:19;11.30;99.90
31455;DHT22;18084;53.028;8.834;2023-10-31T05:51:51;12.90;99.90
31455;DHT22;18084;53.028;8.834;2023-10-31T05:54:17;11.10;99.90
31455;DHT22;18084;53.028;8.834;2023-10-31T05:56:42;11.10;99.90
31455;DHT22;18084;53.028;8.834;2023-10-31T05:59:08;11.00;99.90
31455;DHT22;18084;53.028;8.834;2023-10-31T06:01:34;10.90;99.90
31455;DHT22;18084;53.028;8.834;2023-10-31T06:03:59;11.20;99.90
31455;DHT22;18084;53.028;8.834;2023-10-31T06:06:25;10.80;99.90
31455;DHT22;18084;53.028;8.834;2023-10-31T06:08:50;11.70;99.90
31455;DHT22;18084;53.028;8.834;2023-10-31T06:11:16;10.70;99.90
31455;DHT22;18084;53.028;8.834;2023-10-31T06:13:41;11.50;99.90
31455;DHT22;18084;53.028;8.834;2023-10-31T06:16:07;10.60;99.90
31455;DHT22;18084;53.028;8.834;2023-10-31T06:18:33;10.60;99.90
31455;DHT22;18084;53.028;8.834;2023-10-31T06:20:59;11.20;99.90
31455;DHT22;18084;53.028;8.834;2023-10-31T06:23:24;10.50;99.90
31455;DHT22;18084;53.028;8.834;2023-10-31T06:25:50;10.40;99.90
31455;DHT22;18084;53.028;8.834;2023-10-31T06:28:15;10.50;99.90
31455;DHT22;18084;53.028;8.834;2023-10-31T06:30:41;10.50;99.90
31455;DHT22;18084;53.028;8.834;2023-10-31T06:33:07;10.40;99.90
31455;DHT22;18084;53.028;8.834;2023-10-31T06:35:36;10.40;99.90
31455;DHT22;18084;53.028;8.834;2023-10-31T06:38:01;10.40;99.90
31455;DHT22;18084;53.028;8.834;2023-10-31T06:40:27;10.40;99.90
31455;DHT22;18084;53.028;8.834;2023-10-31T06:42:52;11.30;99.90
31455;DHT22;18084;53.028;8.834;2023-10-31T06:45:21;10.80;99.90
31455;DHT22;18084;53.028;8.834;2023-10-31T06:47:47;10.30;99.90
31455;DHT22;18084;53.028;8.834;2023-10-31T06:50:12;10.40;99.90
31455;DHT22;18084;53.028;8.834;2023-10-31T06:52:38;10.30;99.90
31455;DHT22;18084;53.028;8.834;2023-10-31T06:55:03;10.60;99.90
31455;DHT22;18084;53.028;8.834;2023-10-31T06:57:29;10.30;99.90
31455;DHT22;18084;53.028;8.834;2023-10-31T06:59:55;10.30;99.90
31455;DHT22;18084;53.028;8.834;2023-10-31T07:02:21;10.30;99.90
31455;DHT22;18084;53.028;8.834;2023-10-31T07:04:46;10.30;99.90
31455;DHT22;18084;53.028;8.834;2023-10-31T07:07:12;10.30;99.90
31455;DHT22;18084;53.028;8.834;2023-10-31T07:09:37;10.30;99.90
31455;DHT22;18084;53.028;8.834;2023-10-31T07:12:03;10.30;99.90
31455;DHT22;18084;53.028;8.834;2023-10-31T07:14:28;10.40;99.90
31455;DHT22;18084;53.028;8.834;2023-10-31T07:16:55;10.40;99.90
31455;DHT22;18084;53.028;8.834;2023-10-31T07:19:21;10.50;99.90
31455;DHT22;18084;53.028;8.834;2023-10-31T07:21:46;10.50;99.90
31455;DHT22;18084;53.028;8.834;2023-10-31T07:24:12;10.60;99.90
31455;DHT22;18084;53.028;8.834;2023-10-31T07:26:37;10.60;99.90
31455;DHT22;18084;53.028;8.834;2023-10-31T07:29:03;10.70;99.90
31455;DHT22;18084;53.028;8.834;2023-10-31T07:31:29;10.70;99.90
31455;DHT22;18084;53.028;8.834;2023-10-31T07:33:54;10.70;99.90
31455;DHT22;18084;53.028;8.834;2023-10-31T07:36:21;10.70;99.90
31455;DHT22;18084;53.028;8.834;2023-10-31T07:38:47;10.60;99.90
31455;DHT22;18084;53.028;8.834;2023-10-31T07:41:13;10.70;99.90
31455;DHT22;18084;53.028;8.834;2023-10-31T07:43:39;10.70;99.90
31455;DHT22;18084;53.028;8.834;2023-10-31T07:46:04;10.60;99.90
31455;DHT22;18084;53.028;8.834;2023-10-31T07:48:33;10.60;99.90
31455;DHT22;18084;53.028;8.834;2023-10-31T07:50:58;10.70;99.90
31455;DHT22;18084;53.028;8.834;2023-10-31T07:53:24;10.70;99.90
31455;DHT22;18084;53.028;8.834;2023-10-31T07:55:49;10.90;99.90
31455;DHT22;18084;53.028;8.834;2023-10-31T07:58:15;10.90;99.90
31455;DHT22;18084;53.028;8.834;2023-10-31T08:00:41;10.90;99.90
31455;DHT22;18084;53.028;8.834;2023-10-31T08:03:09;11.00;99.90
31455;DHT22;18084;53.028;8.834;2023-10-31T08:05:34;11.00;99.90
31455;DHT22;18084;53.028;8.834;2023-10-31T08:08:00;10.90;99.90
31455;DHT22;18084;53.028;8.834;2023-10-31T08:10:25;10.80;99.90
31455;DHT22;18084;53.028;8.834;2023-10-31T08:12:51;10.70;99.90
31455;DHT22;18084;53.028;8.834;2023-10-31T08:15:16;10.70;99.90
31455;DHT22;18084;53.028;8.834;2023-10-31T08:17:42;10.60;99.90
31455;DHT22;18084;53.028;8.834;2023-10-31T08:20:08;10.60;99.90
31455;DHT22;18084;53.028;8.834;2023-10-31T08:22:33;10.60;99.90
31455;DHT22;18084;53.028;8.834;2023-10-31T08:24:59;10.60;99.90
31455;DHT22;18084;53.028;8.834;2023-10-31T08:27:24;10.60;99.90
31455;DHT22;18084;53.028;8.834;2023-10-31T08:29:50;10.60;99.90
31455;DHT22;18084;53.028;8.834;2023-10-31T08:32:15;10.70;99.90
31455;DHT22;18084;53.028;8.834;2023-10-31T08:34:41;10.70;99.90
31455;DHT22;18084;53.028;8.834;2023-10-31T08:37:07;10.80;99.90
31455;DHT22;18084;53.028;8.834;2023-10-31T08:39:32;10.80;99.90
31455;DHT22;18084;53.028;8.834;2023-10-31T08:41:58;10.00;99.90
31455;DHT22;18084;53.028;8.834;2023-10-31T08:44:24;10.70;99.90
31455;DHT22;18084;53.028;8.834;2023-10-31T08:46:50;10.70;99.90
31455;DHT22;18084;53.028;8.834;2023-10-31T08:49:16;10.70;99.90
31455;DHT22;18084;53.028;8.834;2023-10-31T08:51:42;10.80;99.90
31455;DHT22;18084;53.028;8.834;2023-10-31T08:54:08;10.80;99.90
31455;DHT22;18084;53.028;8.834;2023-10-31T08:56:34;10.80;99.90
31455;DHT22;18084;53.028;8.834;2023-10-31T08:59:00;10.70;99.90
31455;DHT22;18084;53.028;8.834;2023-10-31T09:01:26;10.80;99.90
31455;DHT22;18084;53.028;8.834;2023-10-31T09:03:52;10.70;99.90
31455;DHT22;18084;53.028;8.834;2023-10-31T09:06:18;10.80;99.90
31455;DHT22;18084;53.028;8.834;2023-10-31T09:08:43;10.80;99.90
31455;DHT22;18084;53.028;8.834;2023-10-31T09:11:09;10.80;99.90
31455;DHT22;18084;53.028;8.834;2023-10-31T09:13:34;10.90;99.90
31455;DHT22;18084;53.028;8.834;2023-10-31T09:16:00;11.00;99.90
31455;DHT22;18084;53.028;8.834;2023-10-31T09:18:25;11.00;99.90
31455;DHT22;18084;53.028;8.834;2023-10-31T09:20:51;11.00;99.90
31455;DHT22;18084;53.028;8.834;2023-10-31T09:23:17;11.10;99.90
31455;DHT22;18084;53.028;8.834;2023-10-31T09:25:43;11.10;99.90
31455;DHT22;18084;53.028;8.834;2023-10-31T09:28:09;11.20;99.90
31455;DHT22;18084;53.028;8.834;2023-10-31T09:30:34;11.10;99.90
31455;DHT22;18084;53.028;8.834;2023-10-31T09:33:00;11.10;99.90
31455;DHT22;18084;53.028;8.834;2023-10-31T09:35:25;11.20;99.90
31455;DHT22;18084;53.028;8.834;2023-10-31T09:37:52;11.10;99.90
31455;DHT22;18084;53.028;8.834;2023-10-31T09:40:18;11.10;99.90
31455;DHT22;18084;53.028;8.834;2023-10-31T09:42:43;11.10;99.90
31455;DHT22;18084;53.028;8.834;2023-10-31T09:45:13;11.10;99.90
31455;DHT22;18084;53.028;8.834;2023-10-31T09:47:39;11.10;99.90
31455;DHT22;18084;53.028;8.834;2023-10-31T09:50:06;11.10;99.90
31455;DHT22;18084;53.028;8.834;2023-10-31T09:52:33;11.20;99.90
31455;DHT22;18084;53.028;8.834;2023-10-31T09:55:01;11.20;99.90
31455;DHT22;18084;53.028;8.834;2023-10-31T09:57:27;11.20;99.90
31455;DHT22;18084;53.028;8.834;2023-10-31T09:59:53;11.30;99.90
31455;DHT22;18084;53.028;8.834;2023-10-31T10:02:18;11.30;99.90
31455;DHT22;18084;53.028;8.834;2023-10-31T10:04:44;11.30;99.90
31455;DHT22;18084;53.028;8.834;2023-10-31T10:07:12;11.30;99.90
31455;DHT22;18084;53.028;8.834;2023-10-31T10:09:38;11.30;99.90
31455;DHT22;18084;53.028;8.834;2023-10-31T10:12:04;11.20;99.90
31455;DHT22;18084;53.028;8.834;2023-10-31T10:14:32;11.20;99.90
31455;DHT22;18084;53.028;8.834;2023-10-31T10:16:58;11.20;99.90
31455;DHT22;18084;53.028;8.834;2023-10-31T10:19:24;11.30;99.90
31455;DHT22;18084;53.028;8.834;2023-10-31T10:24:23;11.40;99.90
31455;DHT22;18084;53.028;8.834;2023-10-31T10:26:52;11.50;99.90
31455;DHT22;18084;53.028;8.834;2023-10-31T10:29:21;11.50;99.90
31455;DHT22;18084;53.028;8.834;2023-10-31T10:31:46;11.50;99.90
31455;DHT22;18084;53.028;8.834;2023-10-31T10:34:15;12.10;99.90
31455;DHT22;18084;53.028;8.834;2023-10-31T10:36:47;11.70;99.90
31455;DHT22;18084;53.028;8.834;2023-10-31T10:39:23;11.90;99.90
31455;DHT22;18084;53.028;8.834;2023-10-31T10:41:53;12.00;99.90
31455;DHT22;18084;53.028;8.834;2023-10-31T10:44:43;12.10;99.90
31455;DHT22;18084;53.028;8.834;2023-10-31T10:52:31;12.40;99.90
31455;DHT22;18084;53.028;8.834;2023-10-31T11:00:09;12.60;99.90
31455;DHT22;18084;53.028;8.834;2023-10-31T11:02:39;12.70;99.90
31455;DHT22;18084;53.028;8.834;2023-10-31T11:05:08;12.60;99.90
31455;DHT22;18084;53.028;8.834;2023-10-31T11:07:35;12.50;99.90
31455;DHT22;18084;53.028;8.834;2023-10-31T11:10:05;12.50;99.90
31455;DHT22;18084;53.028;8.834;2023-10-31T11:12:35;12.40;99.90
31455;DHT22;18084;53.028;8.834;2023-10-31T11:15:03;12.30;99.90
31455;DHT22;18084;53.028;8.834;2023-10-31T11:17:31;12.20;99.90
31455;DHT22;18084;53.028;8.834;2023-10-31T11:19:57;12.00;99.90
31455;DHT22;18084;53.028;8.834;2023-10-31T11:22:23;11.90;99.90
31455;DHT22;18084;53.028;8.834;2023-10-31T11:24:49;11.80;99.90
31455;DHT22;18084;53.028;8.834;2023-10-31T11:27:17;11.90;99.90
31455;DHT22;18084;53.028;8.834;2023-10-31T11:29:46;12.00;99.90
31455;DHT22;18084;53.028;8.834;2023-10-31T11:32:14;12.40;99.90
31455;DHT22;18084;53.028;8.834;2023-10-31T11:34:43;12.00;99.90
31455;DHT22;18084;53.028;8.834;2023-10-31T11:37:26;12.10;99.90
31455;DHT22;18084;53.028;8.834;2023-10-31T11:42:51;12.10;99.90
31455;DHT22;18084;53.028;8.834;2023-10-31T11:45:28;12.10;99.90
31455;DHT22;18084;53.028;8.834;2023-10-31T11:47:54;12.10;99.90
31455;DHT22;18084;53.028;8.834;2023-10-31T11:50:20;12.00;99.90
31455;DHT22;18084;53.028;8.834;2023-10-31T11:52:58;11.90;99.90
31455;DHT22;18084;53.028;8.834;2023-10-31T11:55:24;11.90;99.90
31455;DHT22;18084;53.028;8.834;2023-10-31T11:57:50;11.90;99.90
31455;DHT22;18084;53.028;8.834;2023-10-31T12:00:22;11.80;99.90
31455;DHT22;18084;53.028;8.834;2023-10-31T12:03:00;11.80;99.90
31455;DHT22;18084;53.028;8.834;2023-10-31T12:05:28;11.80;99.90
31455;DHT22;18084;53.028;8.834;2023-10-31T12:07:55;11.70;99.90
31455;DHT22;18084;53.028;8.834;2023-10-31T12:10:25;11.80;99.90
31455;DHT22;18084;53.028;8.834;2023-10-31T12:12:52;11.80;99.90
31455;DHT22;18084;53.028;8.834;2023-10-31T12:15:18;11.80;99.90
31455;DHT22;18084;53.028;8.834;2023-10-31T12:17:44;11.90;99.90
31455;DHT22;18084;53.028;8.834;2023-10-31T12:20:10;12.00;99.90
31455;DHT22;18084;53.028;8.834;2023-10-31T12:22:36;12.00;99.90
31455;DHT22;18084;53.028;8.834;2023-10-31T12:25:07;12.10;99.90
31455;DHT22;18084;53.028;8.834;2023-10-31T12:27:50;12.10;99.90
31455;DHT22;18084;53.028;8.834;2023-10-31T12:30:21;12.10;99.90
31455;DHT22;18084;53.028;8.834;2023-10-31T12:32:54;12.10;99.90
31455;DHT22;18084;53.028;8.834;2023-10-31T12:35:22;12.10;99.90
31455;DHT22;18084;53.028;8.834;2023-10-31T12:37:49;12.00;99.90
31455;DHT22;18084;53.028;8.834;2023-10-31T12:40:17;12.00;99.90
31455;DHT22;18084;53.028;8.834;2023-10-31T12:42:44;12.10;99.90
31455;DHT22;18084;53.028;8.834;2023-10-31T12:45:11;12.60;99.90
31455;DHT22;18084;53.028;8.834;2023-10-31T12:47:37;12.10;99.90
31455;DHT22;18084;53.028;8.834;2023-10-31T12:50:07;11.90;99.90
31455;DHT22;18084;53.028;8.834;2023-10-31T12:52:53;11.80;99.90
31455;DHT22;18084;53.028;8.834;2023-10-31T12:55:26;11.70;99.90
31455;DHT22;18084;53.028;8.834;2023-10-31T12:57:53;11.70;99.90
31455;DHT22;18084;53.028;8.834;2023-10-31T13:00:21;11.70;99.90
31455;DHT22;18084;53.028;8.834;2023-10-31T13:03:02;11.70;99.90
31455;DHT22;18084;53.028;8.834;2023-10-31T13:05:28;11.50;99.90
31455;DHT22;18084;53.028;8.834;2023-10-31T13:07:55;11.40;99.90
31455;DHT22;18084;53.028;8.834;2023-10-31T13:10:23;11.40;99.90
31455;DHT22;18084;53.028;8.834;2023-10-31T13:12:50;11.30;99.90
31455;DHT22;18084;53.028;8.834;2023-10-31T13:15:22;11.10;99.90
31455;DHT22;18084;53.028;8.834;2023-10-31T13:17:49;11.10;99.90
31455;DHT22;18084;53.028;8.834;2023-10-31T13:20:21;11.10;99.90
31455;DHT22;18084;53.028;8.834;2023-10-31T13:22:47;11.00;99.90
31455;DHT22;18084;53.028;8.834;2023-10-31T13:25:14;10.90;99.90
31455;DHT22;18084;53.028;8.834;2023-10-31T13:27:41;10.90;99.90
31455;DHT22;18084;53.028;8.834;2023-10-31T13:30:09;10.80;99.90
31455;DHT22;18084;53.028;8.834;2023-10-31T13:32:36;10.70;99.90
31455;DHT22;18084;53.028;8.834;2023-10-31T13:35:01;10.60;99.90
31455;DHT22;18084;53.028;8.834;2023-10-31T13:37:27;10.60;99.90
31455;DHT22;18084;53.028;8.834;2023-10-31T13:39:52;10.70;99.90
31455;DHT22;18084;53.028;8.834;2023-10-31T13:42:18;10.60;99.90
31455;DHT22;18084;53.028;8.834;2023-10-31T13:44:43;10.60;99.90
31455;DHT22;18084;53.028;8.834;2023-10-31T13:47:09;10.70;99.90
31455;DHT22;18084;53.028;8.834;2023-10-31T13:49:35;10.80;99.90
31455;DHT22;18084;53.028;8.834;2023-10-31T13:52:03;10.90;99.90
31455;DHT22;18084;53.028;8.834;2023-10-31T13:54:29;10.90;99.90
31455;DHT22;18084;53.028;8.834;2023-10-31T13:56:54;10.90;99.90
31455;DHT22;18084;53.028;8.834;2023-10-31T13:59:20;10.90;99.90
31455;DHT22;18084;53.028;8.834;2023-10-31T14:01:45;10.90;99.90
31455;DHT22;18084;53.028;8.834;2023-10-31T14:04:11;11.10;99.90
31455;DHT22;18084;53.028;8.834;2023-10-31T14:06:39;11.30;99.90
31455;DHT22;18084;53.028;8.834;2023-10-31T14:09:05;11.10;99.90
31455;DHT22;18084;53.028;8.834;2023-10-31T14:11:32;11.00;99.90
31455;DHT22;18084;53.028;8.834;2023-10-31T14:13:59;10.90;99.90
31455;DHT22;18084;53.028;8.834;2023-10-31T14:16:31;10.80;99.90
31455;DHT22;18084;53.028;8.834;2023-10-31T14:18:56;10.70;99.90
31455;DHT22;18084;53.028;8.834;2023-10-31T14:21:22;10.60;99.90
31455;DHT22;18084;53.028;8.834;2023-10-31T14:23:47;10.60;99.90
31455;DHT22;18084;53.028;8.834;2023-10-31T14:26:20;10.60;99.90
31455;DHT22;18084;53.028;8.834;2023-10-31T14:28:46;10.60;99.90
31455;DHT22;18084;53.028;8.834;2023-10-31T14:31:12;10.50;99.90
31455;DHT22;18084;53.028;8.834;2023-10-31T14:33:37;10.60;99.90
31455;DHT22;18084;53.028;8.834;2023-10-31T14:36:03;10.60;99.90
31455;DHT22;18084;53.028;8.834;2023-10-31T14:38:28;10.60;99.90
31455;DHT22;18084;53.028;8.834;2023-10-31T14:40:54;10.60;99.90
31455;DHT22;18084;53.028;8.834;2023-10-31T14:43:19;10.60;99.90
31455;DHT22;18084;53.028;8.834;2023-10-31T14:45:48;10.60;99.90
31455;DHT22;18084;53.028;8.834;2023-10-31T14:48:14;10.60;99.90
31455;DHT22;18084;53.028;8.834;2023-10-31T14:50:39;10.60;99.90
31455;DHT22;18084;53.028;8.834;2023-10-31T14:53:05;10.60;99.90
31455;DHT22;18084;53.028;8.834;2023-10-31T14:55:31;10.60;99.90
31455;DHT22;18084;53.028;8.834;2023-10-31T14:57:58;10.50;99.90
31455;DHT22;18084;53.028;8.834;2023-10-31T15:00:23;10.40;99.90
31455;DHT22;18084;53.028;8.834;2023-10-31T15:02:49;10.90;99.90
31455;DHT22;18084;53.028;8.834;2023-10-31T15:05:14;10.30;99.90
31455;DHT22;18084;53.028;8.834;2023-10-31T15:07:40;10.20;99.90
31455;DHT22;18084;53.028;8.834;2023-10-31T15:10:07;10.20;99.90
31455;DHT22;18084;53.028;8.834;2023-10-31T15:12:32;10.10;99.90
31455;DHT22;18084;53.028;8.834;2023-10-31T15:14:58;10.10;99.90
31455;DHT22;18084;53.028;8.834;2023-10-31T15:17:24;10.10;99.90
31455;DHT22;18084;53.028;8.834;2023-10-31T15:19:49;10.00;99.90
31455;DHT22;18084;53.028;8.834;2023-10-31T15:22:15;10.00;99.90
31455;DHT22;18084;53.028;8.834;2023-10-31T15:24:40;10.00;99.90
31455;DHT22;18084;53.028;8.834;2023-10-31T15:27:06;10.10;99.90
31455;DHT22;18084;53.028;8.834;2023-10-31T15:29:32;9.70;99.90
31455;DHT22;18084;53.028;8.834;2023-10-31T15:31:57;9.80;99.90
31455;DHT22;18084;53.028;8.834;2023-10-31T15:34:23;9.80;99.90
31455;DHT22;18084;53.028;8.834;2023-10-31T15:36:48;9.70;99.90
31455;DHT22;18084;53.028;8.834;2023-10-31T15:39:14;9.70;99.90
31455;DHT22;18084;53.028;8.834;2023-10-31T15:41:40;9.60;99.90